createdAt,value
2018-12-05T00:02:27.581Z,8.03
2018-12-05T00:04:56.130Z,8.60
2018-12-05T00:07:24.412Z,11.53
2018-12-05T00:09:52.669Z,10.20
2018-12-05T00:12:20.916Z,8.70
2018-12-05T00:14:49.164Z,7.70
2018-12-05T00:17:17.532Z,7.13
2018-12-05T00:19:45.797Z,7.67
2018-12-05T00:22:14.149Z,7.63
2018-12-05T00:24:43.143Z,7.27
2018-12-05T00:27:11.480Z,7.93
2018-12-05T00:29:39.736Z,7.17
2018-12-05T00:32:08.789Z,6.93
2018-12-05T00:34:37.122Z,7.23
2018-12-05T00:37:05.442Z,9.00
2018-12-05T00:39:33.891Z,6.77
2018-12-05T00:42:02.152Z,8.20
2018-12-05T00:44:30.482Z,7.47
2018-12-05T00:46:58.753Z,8.50
2018-12-05T00:49:27.134Z,8.40
2018-12-05T00:51:55.386Z,9.00
2018-12-05T00:54:23.648Z,8.30
2018-12-05T00:56:52.281Z,8.90
2018-12-05T00:59:20.520Z,8.30
2018-12-05T01:01:48.853Z,7.93
2018-12-05T01:04:17.292Z,8.03
2018-12-05T01:06:45.604Z,9.23
2018-12-05T01:09:13.958Z,9.43
2018-12-05T01:11:42.228Z,9.50
2018-12-05T01:14:10.586Z,8.43
2018-12-05T01:16:38.874Z,9.70
2018-12-05T01:19:07.106Z,8.13
2018-12-05T01:21:35.340Z,9.40
2018-12-05T01:24:03.842Z,8.63
2018-12-05T01:26:32.077Z,9.80
2018-12-05T01:29:00.457Z,8.77
2018-12-05T01:31:28.708Z,9.20
2018-12-05T01:33:56.967Z,8.83
2018-12-05T01:36:25.363Z,8.77
2018-12-05T01:38:53.625Z,9.07
2018-12-05T01:41:21.900Z,9.33
2018-12-05T01:43:50.138Z,8.33
2018-12-05T01:46:18.384Z,9.30
2018-12-05T01:48:46.630Z,9.03
2018-12-05T01:51:14.898Z,9.07
2018-12-05T01:53:43.158Z,8.93
2018-12-05T01:56:11.448Z,9.13
2018-12-05T01:58:39.765Z,9.47
2018-12-05T02:01:08.206Z,8.93
2018-12-05T02:03:36.518Z,9.77
2018-12-05T02:06:04.726Z,9.10
2018-12-05T02:08:32.965Z,9.90
2018-12-05T02:11:01.789Z,9.77
2018-12-05T02:13:30.032Z,9.77
2018-12-05T02:15:58.321Z,10.33
2018-12-05T02:18:26.574Z,9.40
2018-12-05T02:20:54.866Z,9.97
2018-12-05T02:23:23.146Z,10.97
2018-12-05T02:25:51.421Z,10.83
2018-12-05T02:28:19.807Z,10.53
2018-12-05T02:30:48.194Z,10.33
2018-12-05T02:33:16.436Z,10.90
2018-12-05T02:35:44.743Z,9.43
2018-12-05T02:38:13.053Z,10.07
2018-12-05T02:40:41.338Z,9.53
2018-12-05T02:43:09.693Z,9.90
2018-12-05T02:45:37.940Z,10.00
2018-12-05T02:48:06.191Z,9.67
2018-12-05T02:50:34.490Z,9.87
2018-12-05T02:53:02.757Z,9.37
2018-12-05T02:55:31.104Z,9.30
2018-12-05T02:57:59.361Z,9.30
2018-12-05T03:00:27.742Z,9.50
2018-12-05T03:02:56.012Z,9.57
2018-12-05T03:05:24.333Z,8.80
2018-12-05T03:07:52.748Z,8.00
2018-12-05T03:10:21.063Z,8.43
2018-12-05T03:12:49.376Z,8.57
2018-12-05T03:15:17.659Z,8.83
2018-12-05T03:17:45.966Z,8.87
2018-12-05T03:20:14.380Z,8.60
2018-12-05T03:22:42.724Z,8.80
2018-12-05T03:25:10.977Z,9.00
2018-12-05T03:27:39.217Z,8.70
2018-12-05T03:30:07.609Z,9.97
2018-12-05T03:32:35.967Z,10.43
2018-12-05T03:35:04.355Z,10.27
2018-12-05T03:37:32.707Z,10.73
2018-12-05T03:40:01.005Z,9.87
2018-12-05T03:42:29.364Z,9.73
2018-12-05T03:44:57.686Z,10.63
2018-12-05T03:47:25.957Z,10.43
2018-12-05T03:49:59.542Z,11.43
2018-12-05T03:52:27.894Z,11.63
2018-12-05T03:54:56.294Z,12.37
2018-12-05T03:57:24.664Z,11.90
2018-12-05T03:59:53.003Z,11.13
2018-12-05T04:02:21.318Z,11.47
2018-12-05T04:04:49.705Z,11.30
2018-12-05T04:07:17.988Z,11.93
2018-12-05T04:09:46.336Z,11.13
2018-12-05T04:12:14.696Z,11.90
2018-12-05T04:14:43.055Z,10.93
2018-12-05T04:17:11.332Z,10.73
2018-12-05T04:19:39.752Z,10.10
2018-12-05T04:22:08.061Z,10.43
2018-12-05T04:24:36.346Z,9.83
2018-12-05T04:27:04.709Z,9.97
2018-12-05T04:29:33.143Z,9.47
2018-12-05T04:32:01.437Z,9.20
2018-12-05T04:34:29.695Z,8.40
2018-12-05T04:36:57.979Z,10.00
2018-12-05T04:39:26.239Z,9.97
2018-12-05T04:41:54.579Z,8.20
2018-12-05T04:44:22.877Z,8.97
2018-12-05T04:46:51.226Z,9.63
2018-12-05T04:49:19.493Z,9.97
2018-12-05T04:51:47.734Z,10.03
2018-12-05T04:54:15.991Z,9.57
2018-12-05T04:56:44.299Z,9.83
2018-12-05T04:59:12.637Z,9.60
2018-12-05T05:01:40.985Z,9.80
2018-12-05T05:04:09.362Z,9.53
2018-12-05T05:06:41.881Z,9.73
2018-12-05T05:09:10.559Z,9.57
2018-12-05T05:11:39.269Z,8.47
2018-12-05T05:14:07.589Z,8.17
2018-12-05T05:16:35.854Z,8.60
2018-12-05T05:19:04.213Z,8.83
2018-12-05T05:21:32.483Z,8.53
2018-12-05T05:24:00.846Z,8.80
2018-12-05T05:26:29.160Z,9.47
2018-12-05T05:28:57.438Z,9.13
2018-12-05T05:31:25.749Z,8.60
2018-12-05T05:33:54.056Z,9.13
2018-12-05T05:36:22.473Z,8.30
2018-12-05T05:38:50.734Z,9.20
2018-12-05T05:41:19.050Z,8.43
2018-12-05T05:43:47.354Z,8.33
2018-12-05T05:46:15.784Z,8.63
2018-12-05T05:48:44.065Z,8.23
2018-12-05T05:51:12.384Z,8.40
2018-12-05T05:53:40.749Z,8.03
2018-12-05T05:56:09.071Z,9.10
2018-12-05T05:58:37.454Z,8.20
2018-12-05T06:01:12.591Z,8.80
2018-12-05T06:03:40.905Z,7.90
2018-12-05T06:06:09.288Z,8.10
2018-12-05T06:08:37.629Z,8.43
2018-12-05T06:11:05.899Z,7.97
2018-12-05T06:13:34.199Z,8.13
2018-12-05T06:16:02.469Z,11.37
2018-12-05T06:18:30.856Z,8.63
2018-12-05T06:20:59.199Z,8.13
2018-12-05T06:23:27.565Z,7.43
2018-12-05T06:25:55.848Z,8.03
2018-12-05T06:28:24.131Z,8.17
2018-12-05T06:30:52.384Z,7.77
2018-12-05T06:33:20.655Z,7.63
2018-12-05T06:35:48.880Z,7.93
2018-12-05T06:38:17.197Z,8.50
2018-12-05T06:40:45.507Z,7.73
2018-12-05T06:43:13.752Z,7.77
2018-12-05T06:45:42.000Z,7.93
2018-12-05T06:48:10.267Z,7.90
2018-12-05T06:50:38.530Z,8.53
2018-12-05T06:53:06.907Z,9.17
2018-12-05T06:55:39.108Z,8.30
2018-12-05T06:58:05.368Z,8.23
2018-12-05T07:00:33.662Z,7.87
2018-12-05T07:03:01.941Z,7.13
2018-12-05T07:05:30.277Z,7.67
2018-12-05T07:07:58.520Z,7.80
2018-12-05T07:10:26.795Z,7.43
2018-12-05T07:12:55.102Z,6.47
2018-12-05T07:15:23.369Z,8.37
2018-12-05T07:17:51.799Z,6.70
2018-12-05T07:20:20.052Z,7.67
2018-12-05T07:22:48.385Z,7.30
2018-12-05T07:25:16.639Z,7.80
2018-12-05T07:27:44.911Z,7.73
2018-12-05T07:30:13.382Z,7.80
2018-12-05T07:32:41.874Z,7.60
2018-12-05T07:35:10.130Z,7.77
2018-12-05T07:37:38.362Z,7.80
2018-12-05T07:40:06.846Z,8.00
2018-12-05T07:42:35.094Z,7.67
2018-12-05T07:45:03.974Z,8.40
2018-12-05T07:47:32.263Z,7.33
2018-12-05T07:50:01.149Z,7.27
2018-12-05T07:52:29.407Z,7.43
2018-12-05T07:54:57.676Z,7.47
2018-12-05T07:57:26.193Z,6.97
2018-12-05T07:59:54.449Z,7.13
2018-12-05T08:02:22.698Z,7.10
2018-12-05T08:04:51.021Z,7.67
2018-12-05T08:07:19.340Z,6.70
2018-12-05T08:09:48.406Z,7.63
2018-12-05T08:12:16.672Z,6.97
2018-12-05T08:14:44.995Z,6.63
2018-12-05T08:17:14.040Z,6.90
2018-12-05T08:19:42.333Z,6.83
2018-12-05T08:22:10.730Z,7.30
2018-12-05T08:24:39.048Z,7.27
2018-12-05T08:27:07.356Z,6.40
2018-12-05T08:29:35.603Z,7.07
2018-12-05T08:32:05.471Z,6.13
2018-12-05T08:34:33.874Z,6.27
2018-12-05T08:37:02.228Z,6.57
2018-12-05T08:39:31.472Z,6.57
2018-12-05T08:41:59.835Z,6.83
2018-12-05T08:44:28.349Z,6.20
2018-12-05T08:49:51.007Z,6.30
2018-12-05T08:52:19.318Z,6.40
2018-12-05T08:54:48.098Z,7.03
2018-12-05T08:57:16.359Z,6.73
2018-12-05T08:59:44.708Z,6.67
2018-12-05T09:02:13.456Z,7.23
2018-12-05T09:04:41.809Z,6.97
2018-12-05T09:07:10.522Z,6.40
2018-12-05T09:09:38.954Z,6.43
2018-12-05T09:14:44.961Z,7.07
2018-12-05T09:17:13.447Z,7.10
2018-12-05T09:19:41.799Z,6.73
2018-12-05T09:43:36.425Z,7.50
2018-12-05T09:46:05.005Z,6.93
2018-12-05T09:48:33.746Z,7.93
2018-12-05T09:51:15.751Z,7.87
2018-12-05T09:53:44.042Z,7.77
2018-12-05T09:56:12.419Z,7.97
2018-12-05T09:58:40.733Z,7.70
2018-12-05T10:01:08.998Z,8.40
2018-12-05T10:03:37.264Z,7.40
2018-12-05T10:06:05.583Z,7.27
2018-12-05T10:08:33.868Z,8.40
2018-12-05T10:11:02.198Z,8.17
2018-12-05T10:13:30.567Z,7.70
2018-12-05T10:15:58.852Z,8.07
2018-12-05T10:18:27.138Z,8.07
2018-12-05T10:20:56.179Z,7.93
2018-12-05T10:23:24.871Z,8.63
2018-12-05T10:25:53.270Z,8.73
2018-12-05T10:28:21.694Z,8.70
2018-12-05T10:30:50.078Z,10.03
2018-12-05T10:33:18.314Z,9.10
2018-12-05T10:35:46.572Z,8.70
2018-12-05T10:38:14.862Z,7.83
2018-12-05T10:40:43.120Z,8.83
2018-12-05T10:43:11.517Z,9.07
2018-12-05T10:45:39.977Z,7.40
2018-12-05T10:48:08.272Z,9.13
2018-12-05T10:50:36.513Z,8.33
2018-12-05T10:53:04.901Z,8.20
2018-12-05T10:55:33.280Z,8.13
2018-12-05T10:58:07.091Z,8.57
2018-12-05T11:00:40.969Z,9.60
2018-12-05T11:03:16.827Z,9.70
2018-12-05T11:05:50.481Z,10.27
2018-12-05T11:08:22.303Z,8.93
2018-12-05T11:10:55.988Z,9.13
2018-12-05T11:13:29.681Z,9.30
2018-12-05T11:16:05.681Z,9.50
2018-12-05T11:18:39.321Z,9.33
2018-12-05T11:21:12.660Z,9.00
2018-12-05T11:23:47.517Z,8.73
2018-12-05T11:26:18.977Z,8.80
2018-12-05T11:28:47.303Z,8.67
2018-12-05T11:31:15.712Z,8.10
2018-12-05T11:33:44.136Z,9.03
2018-12-05T11:36:12.663Z,8.37
2018-12-05T11:38:41.111Z,7.90
2018-12-05T11:41:09.465Z,8.80
2018-12-05T11:43:37.762Z,8.40
2018-12-05T11:46:06.052Z,8.57
2018-12-05T11:48:34.394Z,8.27
2018-12-05T11:51:02.673Z,9.30
2018-12-05T11:53:30.954Z,11.80
2018-12-05T11:55:59.388Z,9.33
2018-12-05T11:58:27.760Z,9.33
2018-12-05T12:00:56.114Z,9.87
2018-12-05T12:03:24.419Z,8.50
2018-12-05T12:05:52.738Z,11.97
2018-12-05T12:08:21.080Z,9.03
2018-12-05T12:10:49.447Z,11.33
2018-12-05T12:13:17.787Z,9.53
2018-12-05T12:15:46.311Z,8.40
2018-12-05T12:18:14.822Z,10.00
2018-12-05T12:20:43.099Z,9.43
2018-12-05T12:23:11.444Z,8.37
2018-12-05T12:25:39.762Z,10.27
2018-12-05T12:28:08.245Z,9.10
2018-12-05T12:30:36.546Z,10.70
2018-12-05T12:33:04.869Z,10.63
2018-12-05T12:35:33.521Z,12.63
2018-12-05T12:38:01.873Z,11.70
2018-12-05T12:40:30.171Z,9.37
2018-12-05T12:42:59.194Z,9.70
2018-12-05T12:45:27.774Z,10.03
2018-12-05T12:47:56.402Z,9.37
2018-12-05T12:50:24.728Z,9.27
2018-12-05T12:52:53.238Z,9.03
2018-12-05T12:55:21.836Z,10.27
2018-12-05T12:57:50.479Z,11.07
2018-12-05T13:00:19.157Z,9.27
2018-12-05T13:02:47.744Z,9.43
2018-12-05T13:05:16.540Z,9.47
2018-12-05T13:07:44.904Z,7.93
2018-12-05T13:10:13.258Z,9.30
2018-12-05T13:12:41.571Z,9.90
2018-12-05T13:15:10.152Z,8.70
2018-12-05T13:17:38.576Z,8.07
2018-12-05T13:20:07.775Z,8.00
2018-12-05T13:22:36.039Z,8.33
2018-12-05T13:25:04.640Z,8.20
2018-12-05T13:27:32.955Z,8.50
2018-12-05T13:30:01.363Z,9.27
2018-12-05T13:32:29.646Z,8.60
2018-12-05T13:34:58.026Z,8.13
2018-12-05T13:37:26.469Z,10.07
2018-12-05T13:39:54.753Z,9.60
2018-12-05T13:42:23.163Z,11.47
2018-12-05T13:44:51.513Z,10.13
2018-12-05T13:47:20.048Z,9.80
2018-12-05T13:49:48.452Z,8.33
2018-12-05T13:52:16.724Z,8.10
2018-12-05T13:54:45.239Z,8.40
2018-12-05T13:57:13.548Z,8.93
2018-12-05T13:59:41.857Z,9.33
2018-12-05T14:02:10.203Z,8.90
2018-12-05T14:04:38.460Z,8.10
2018-12-05T14:07:06.917Z,8.50
2018-12-05T14:09:35.231Z,9.13
2018-12-05T14:12:03.622Z,8.57
2018-12-05T14:14:32.093Z,9.17
2018-12-05T14:17:00.690Z,8.50
2018-12-05T14:19:30.453Z,9.47
2018-12-05T14:21:59.201Z,9.83
2018-12-05T14:24:27.956Z,9.20
2018-12-05T14:26:56.327Z,12.10
2018-12-05T14:29:24.612Z,10.87
2018-12-05T14:31:53.028Z,11.30
2018-12-05T14:34:21.340Z,11.53
2018-12-05T14:36:49.685Z,12.53
2018-12-05T14:39:18.144Z,9.93
2018-12-05T14:41:46.584Z,9.17
2018-12-05T14:44:14.939Z,9.90
2018-12-05T14:46:43.448Z,8.80
2018-12-05T14:49:11.727Z,8.90
2018-12-05T14:51:40.281Z,9.37
2018-12-05T14:54:09.147Z,9.13
2018-12-05T14:56:37.439Z,8.73
2018-12-05T14:59:05.740Z,8.97
2018-12-05T15:01:34.001Z,9.03
2018-12-05T15:04:02.313Z,9.40
2018-12-05T15:06:30.719Z,9.77
2018-12-05T15:08:58.990Z,9.13
2018-12-05T15:11:27.380Z,10.27
2018-12-05T15:13:55.714Z,10.37
2018-12-05T15:16:24.013Z,9.33
2018-12-05T15:18:52.405Z,9.20
2018-12-05T15:21:20.812Z,9.43
2018-12-05T15:23:49.090Z,9.00
2018-12-05T15:26:17.372Z,9.43
2018-12-05T15:28:45.650Z,8.63
2018-12-05T15:31:13.941Z,8.70
2018-12-05T15:33:42.206Z,9.73
2018-12-05T15:36:10.536Z,8.53
2018-12-05T15:38:38.824Z,9.67
2018-12-05T15:41:07.127Z,10.20
2018-12-05T15:43:35.577Z,9.77
2018-12-05T15:46:03.860Z,9.10
2018-12-05T15:48:32.218Z,9.70
2018-12-05T15:51:00.521Z,10.27
2018-12-05T15:53:29.042Z,10.00
2018-12-05T15:55:57.288Z,10.90
2018-12-05T15:58:25.632Z,9.93
2018-12-05T16:00:53.972Z,10.47
2018-12-05T16:03:22.371Z,10.70
2018-12-05T16:05:51.070Z,10.70
2018-12-05T16:08:19.554Z,10.07
2018-12-05T16:10:47.957Z,10.07
2018-12-05T16:13:16.289Z,9.40
2018-12-05T16:15:44.617Z,10.57
2018-12-05T16:18:13.017Z,10.30
2018-12-05T16:20:41.261Z,10.23
2018-12-05T16:23:09.621Z,10.00
2018-12-05T16:25:37.913Z,9.27
2018-12-05T16:28:06.015Z,9.63
2018-12-05T16:30:34.444Z,9.60
2018-12-05T16:33:02.718Z,9.93
2018-12-05T16:35:31.199Z,9.47
2018-12-05T16:37:59.468Z,9.90
2018-12-05T16:40:27.894Z,10.50
2018-12-05T16:42:56.291Z,10.60
2018-12-05T16:45:24.766Z,9.50
2018-12-05T16:47:53.052Z,10.13
2018-12-05T16:50:21.429Z,10.10
2018-12-05T16:52:49.834Z,12.30
2018-12-05T16:55:18.201Z,11.20
2018-12-05T16:57:46.523Z,10.87
2018-12-05T17:00:14.878Z,11.00
2018-12-05T17:02:43.172Z,10.47
2018-12-05T17:05:11.633Z,10.13
2018-12-05T17:07:46.685Z,9.87
2018-12-05T17:10:15.165Z,10.67
2018-12-05T17:12:43.440Z,10.37
2018-12-05T17:15:11.731Z,11.93
2018-12-05T17:17:40.045Z,11.67
2018-12-05T17:20:08.498Z,13.47
2018-12-05T17:22:36.840Z,11.57
2018-12-05T17:25:05.691Z,10.97
2018-12-05T17:27:34.103Z,10.93
2018-12-05T17:30:02.419Z,10.47
2018-12-05T17:32:30.729Z,11.00
2018-12-05T17:35:05.496Z,11.70
2018-12-05T17:37:33.803Z,11.50
2018-12-05T17:40:02.159Z,11.07
2018-12-05T17:42:30.508Z,11.20
2018-12-05T17:44:59.081Z,10.83
2018-12-05T17:47:27.540Z,11.00
2018-12-05T17:49:55.832Z,11.13
2018-12-05T17:52:24.187Z,10.60
2018-12-05T17:54:52.476Z,11.00
2018-12-05T17:57:20.738Z,11.63
2018-12-05T17:59:49.478Z,11.40
2018-12-05T18:02:18.175Z,11.63
2018-12-05T18:04:46.883Z,10.87
2018-12-05T18:07:15.219Z,10.03
2018-12-05T18:09:43.495Z,11.10
2018-12-05T18:12:11.776Z,11.30
2018-12-05T18:14:44.152Z,9.93
2018-12-05T18:17:12.488Z,10.70
2018-12-05T18:19:40.801Z,9.87
2018-12-05T18:22:09.142Z,9.87
2018-12-05T18:24:37.534Z,10.00
2018-12-05T18:27:05.935Z,10.40
2018-12-05T18:29:34.552Z,10.33
2018-12-05T18:32:02.967Z,9.57
2018-12-05T18:34:31.271Z,10.33
2018-12-05T18:36:59.589Z,9.53
2018-12-05T18:39:27.857Z,10.47
2018-12-05T18:41:56.161Z,9.53
2018-12-05T18:44:24.626Z,9.00
2018-12-05T18:46:53.568Z,9.80
2018-12-05T18:49:21.813Z,9.17
2018-12-05T18:51:50.112Z,9.50
2018-12-05T18:54:18.498Z,9.63
2018-12-05T18:56:46.802Z,10.07
2018-12-05T18:59:15.187Z,9.87
2018-12-05T19:01:43.473Z,8.50
2018-12-05T19:04:11.711Z,23.40
2018-12-05T19:06:39.995Z,11.40
2018-12-05T19:09:08.898Z,10.13
2018-12-05T19:11:37.223Z,10.60
2018-12-05T19:14:12.156Z,10.13
2018-12-05T19:16:40.399Z,9.93
2018-12-05T19:19:08.731Z,9.80
2018-12-05T19:21:37.165Z,9.80
2018-12-05T19:24:06.211Z,10.57
2018-12-05T19:26:34.506Z,9.83
2018-12-05T19:29:02.813Z,10.03
2018-12-05T19:31:31.097Z,9.40
2018-12-05T19:33:59.582Z,10.73
2018-12-05T19:36:27.860Z,9.33
2018-12-05T19:38:56.174Z,10.47
2018-12-05T19:41:24.536Z,9.80
2018-12-05T19:43:52.803Z,9.40
2018-12-05T19:46:21.195Z,10.43
2018-12-05T19:48:49.467Z,10.57
2018-12-05T19:51:17.737Z,10.03
2018-12-05T19:53:46.067Z,9.90
2018-12-05T19:56:14.372Z,10.13
2018-12-05T19:58:42.708Z,10.27
2018-12-05T20:01:12.287Z,10.80
2018-12-05T20:03:40.741Z,9.67
2018-12-05T20:06:09.049Z,10.57
2018-12-05T20:08:37.518Z,10.87
2018-12-05T20:11:05.798Z,10.67
2018-12-05T20:13:36.384Z,10.63
2018-12-05T20:16:04.890Z,10.50
2018-12-05T20:18:33.239Z,10.53
2018-12-05T20:21:01.674Z,10.17
2018-12-05T20:23:30.081Z,10.77
2018-12-05T20:25:58.380Z,9.87
2018-12-05T20:28:26.649Z,9.70
2018-12-05T20:30:54.912Z,9.73
2018-12-05T20:33:23.240Z,10.83
2018-12-05T20:35:51.481Z,9.57
2018-12-05T20:38:19.785Z,10.87
2018-12-05T20:40:48.186Z,10.63
2018-12-05T20:43:16.526Z,10.07
2018-12-05T20:45:44.792Z,10.67
2018-12-05T20:48:13.105Z,10.17
2018-12-05T20:50:41.491Z,9.33
2018-12-05T20:53:09.798Z,10.13
2018-12-05T20:55:38.018Z,12.40
2018-12-05T20:58:06.352Z,9.97
2018-12-05T21:00:34.784Z,10.73
2018-12-05T21:03:03.062Z,22.37
2018-12-05T21:05:31.470Z,10.93
2018-12-05T21:07:59.762Z,10.67
2018-12-05T21:10:28.033Z,11.23
2018-12-05T21:12:56.286Z,10.43
2018-12-05T21:15:24.508Z,9.97
2018-12-05T21:17:52.775Z,10.37
2018-12-05T21:20:21.022Z,13.33
2018-12-05T21:22:49.343Z,10.10
2018-12-05T21:25:17.597Z,10.37
2018-12-05T21:27:45.837Z,10.60
2018-12-05T21:30:14.214Z,10.63
2018-12-05T21:32:42.442Z,9.80
2018-12-05T21:35:10.698Z,10.60
2018-12-05T21:37:38.897Z,9.53
2018-12-05T21:40:07.342Z,10.83
2018-12-05T21:42:35.586Z,11.30
2018-12-05T21:45:04.246Z,10.43
2018-12-05T21:47:32.478Z,10.60
2018-12-05T21:50:00.775Z,11.83
2018-12-05T21:52:29.168Z,20.50
2018-12-05T21:54:57.489Z,11.00
2018-12-05T21:57:25.930Z,10.97
2018-12-05T21:59:54.185Z,12.27
2018-12-05T22:02:22.453Z,11.17
2018-12-05T22:04:52.134Z,11.73
2018-12-05T22:07:20.885Z,11.83
2018-12-05T22:09:49.231Z,11.73
2018-12-05T22:12:18.995Z,11.47
2018-12-05T22:14:47.974Z,11.00
2018-12-05T22:17:16.296Z,11.30
2018-12-05T22:19:44.580Z,12.43
2018-12-05T22:22:12.946Z,11.97
2018-12-05T22:24:47.806Z,14.67
2018-12-05T22:27:16.163Z,12.77
2018-12-05T22:29:46.345Z,10.97
2018-12-05T22:32:14.684Z,11.20
2018-12-05T22:34:43.094Z,11.20
2018-12-05T22:37:11.372Z,11.27
2018-12-05T22:39:39.633Z,11.13
2018-12-05T22:42:10.883Z,10.43
2018-12-05T22:44:40.233Z,11.90
2018-12-05T22:47:08.669Z,11.50
2018-12-05T22:49:36.965Z,11.23
2018-12-05T22:52:05.259Z,11.97
2018-12-05T22:54:33.514Z,11.77
2018-12-05T22:57:13.640Z,10.77
2018-12-05T22:59:42.017Z,11.43
2018-12-05T23:02:10.664Z,11.17
2018-12-05T23:04:38.982Z,12.23
2018-12-05T23:07:07.348Z,12.30
2018-12-05T23:09:37.704Z,13.40
2018-12-05T23:12:06.239Z,12.90
2018-12-05T23:14:36.927Z,12.20
2018-12-05T23:17:05.669Z,12.20
2018-12-05T23:19:33.929Z,13.10
2018-12-05T23:22:02.243Z,12.03
2018-12-05T23:24:30.479Z,12.40
2018-12-05T23:26:58.763Z,12.10
2018-12-05T23:29:27.105Z,12.57
2018-12-05T23:31:55.348Z,12.20
2018-12-05T23:34:24.964Z,12.03
2018-12-05T23:36:53.365Z,13.30
2018-12-05T23:39:21.689Z,12.03
2018-12-05T23:41:49.965Z,12.60
2018-12-05T23:44:18.303Z,13.00
2018-12-05T23:46:46.510Z,12.83
2018-12-05T23:49:14.768Z,12.17
2018-12-05T23:51:43.049Z,14.30
2018-12-05T23:54:11.641Z,14.27
2018-12-05T23:56:39.905Z,13.37
2018-12-05T23:59:08.254Z,12.67
